sensor_id;sensor_type;location;lat;lon;timestamp;P1;durP1;ratioP1;P2;durP2;ratioP2
1693;SDS011;844;47.058;15.472;2023-04-24T00:01:15;5.40;;;5.00;;
1693;SDS011;844;47.058;15.472;2023-04-24T00:03:48;6.17;;;5.63;;
1693;SDS011;844;47.058;15.472;2023-04-24T00:06:19;6.20;;;5.70;;
1693;SDS011;844;47.058;15.472;2023-04-24T00:08:50;6.53;;;5.93;;
1693;SDS011;844;47.058;15.472;2023-04-24T00:11:22;7.20;;;6.60;;
1693;SDS011;844;47.058;15.472;2023-04-24T00:13:52;7.30;;;6.70;;
1693;SDS011;844;47.058;15.472;2023-04-24T00:16:22;6.73;;;6.10;;
1693;SDS011;844;47.058;15.472;2023-04-24T00:18:53;9.83;;;7.37;;
1693;SDS011;844;47.058;15.472;2023-04-24T00:21:23;7.67;;;6.90;;
1693;SDS011;844;47.058;15.472;2023-04-24T00:23:54;6.23;;;5.73;;
1693;SDS011;844;47.058;15.472;2023-04-24T00:26:26;5.17;;;4.77;;
1693;SDS011;844;47.058;15.472;2023-04-24T00:28:56;4.63;;;4.17;;
1693;SDS011;844;47.058;15.472;2023-04-24T00:31:27;5.50;;;5.00;;
1693;SDS011;844;47.058;15.472;2023-04-24T00:33:57;4.60;;;4.30;;
1693;SDS011;844;47.058;15.472;2023-04-24T00:36:28;5.77;;;5.27;;
1693;SDS011;844;47.058;15.472;2023-04-24T00:39:01;5.00;;;4.60;;
1693;SDS011;844;47.058;15.472;2023-04-24T00:41:36;5.03;;;4.57;;
1693;SDS011;844;47.058;15.472;2023-04-24T00:44:07;4.90;;;4.20;;
1693;SDS011;844;47.058;15.472;2023-04-24T00:46:38;5.20;;;4.80;;
1693;SDS011;844;47.058;15.472;2023-04-24T00:49:09;8.00;;;5.73;;
1693;SDS011;844;47.058;15.472;2023-04-24T00:51:39;5.93;;;5.20;;
1693;SDS011;844;47.058;15.472;2023-04-24T00:54:13;6.17;;;5.67;;
1693;SDS011;844;47.058;15.472;2023-04-24T00:56:45;4.77;;;4.30;;
1693;SDS011;844;47.058;15.472;2023-04-24T00:59:16;5.03;;;4.57;;
1693;SDS011;844;47.058;15.472;2023-04-24T01:01:46;4.43;;;4.10;;
1693;SDS011;844;47.058;15.472;2023-04-24T01:04:16;4.40;;;4.00;;
1693;SDS011;844;47.058;15.472;2023-04-24T01:06:47;5.10;;;4.70;;
1693;SDS011;844;47.058;15.472;2023-04-24T01:09:20;4.93;;;4.53;;
1693;SDS011;844;47.058;15.472;2023-04-24T01:11:53;5.27;;;4.63;;
1693;SDS011;844;47.058;15.472;2023-04-24T01:14:24;5.37;;;4.97;;
1693;SDS011;844;47.058;15.472;2023-04-24T01:16:54;5.07;;;4.67;;
1693;SDS011;844;47.058;15.472;2023-04-24T01:19:26;5.43;;;4.70;;
1693;SDS011;844;47.058;15.472;2023-04-24T01:21:57;4.50;;;4.20;;
1693;SDS011;844;47.058;15.472;2023-04-24T01:24:30;5.80;;;5.10;;
1693;SDS011;844;47.058;15.472;2023-04-24T01:27:00;6.13;;;5.63;;
1693;SDS011;844;47.058;15.472;2023-04-24T01:29:30;4.60;;;4.30;;
1693;SDS011;844;47.058;15.472;2023-04-24T01:32:02;5.23;;;4.87;;
1693;SDS011;844;47.058;15.472;2023-04-24T01:34:33;4.80;;;4.40;;
1693;SDS011;844;47.058;15.472;2023-04-24T01:37:04;5.07;;;4.70;;
1693;SDS011;844;47.058;15.472;2023-04-24T01:39:40;6.03;;;5.20;;
1693;SDS011;844;47.058;15.472;2023-04-24T01:42:12;5.30;;;4.90;;
1693;SDS011;844;47.058;15.472;2023-04-24T01:44:43;4.70;;;4.30;;
1693;SDS011;844;47.058;15.472;2023-04-24T01:47:14;6.07;;;5.20;;
1693;SDS011;844;47.058;15.472;2023-04-24T01:49:45;5.00;;;4.50;;
1693;SDS011;844;47.058;15.472;2023-04-24T01:52:15;4.37;;;3.97;;
1693;SDS011;844;47.058;15.472;2023-04-24T01:54:48;4.77;;;4.47;;
1693;SDS011;844;47.058;15.472;2023-04-24T01:57:17;4.30;;;4.00;;
1693;SDS011;844;47.058;15.472;2023-04-24T01:59:48;5.50;;;4.93;;
1693;SDS011;844;47.058;15.472;2023-04-24T02:02:18;7.07;;;4.77;;
1693;SDS011;844;47.058;15.472;2023-04-24T02:04:51;5.50;;;4.20;;
1693;SDS011;844;47.058;15.472;2023-04-24T02:07:22;5.70;;;5.30;;
1693;SDS011;844;47.058;15.472;2023-04-24T02:09:55;6.03;;;4.40;;
1693;SDS011;844;47.058;15.472;2023-04-24T02:12:25;5.33;;;4.83;;
1693;SDS011;844;47.058;15.472;2023-04-24T02:14:55;5.03;;;4.63;;
1693;SDS011;844;47.058;15.472;2023-04-24T02:17:25;4.83;;;4.43;;
1693;SDS011;844;47.058;15.472;2023-04-24T02:19:56;5.20;;;4.70;;
1693;SDS011;844;47.058;15.472;2023-04-24T02:22:26;5.07;;;4.67;;
1693;SDS011;844;47.058;15.472;2023-04-24T02:24:58;6.70;;;4.87;;
1693;SDS011;844;47.058;15.472;2023-04-24T02:27:29;5.10;;;4.70;;
1693;SDS011;844;47.058;15.472;2023-04-24T02:29:59;9.53;;;5.80;;
1693;SDS011;844;47.058;15.472;2023-04-24T02:32:31;6.40;;;5.90;;
1693;SDS011;844;47.058;15.472;2023-04-24T02:35:01;5.97;;;5.47;;
1693;SDS011;844;47.058;15.472;2023-04-24T02:37:31;5.60;;;5.20;;
1693;SDS011;844;47.058;15.472;2023-04-24T02:40:04;6.90;;;5.13;;
1693;SDS011;844;47.058;15.472;2023-04-24T02:42:35;5.03;;;4.63;;
1693;SDS011;844;47.058;15.472;2023-04-24T02:45:06;5.40;;;4.90;;
1693;SDS011;844;47.058;15.472;2023-04-24T02:47:37;6.00;;;5.50;;
1693;SDS011;844;47.058;15.472;2023-04-24T02:50:07;5.17;;;4.77;;
1693;SDS011;844;47.058;15.472;2023-04-24T02:52:38;5.30;;;4.90;;
1693;SDS011;844;47.058;15.472;2023-04-24T02:55:10;5.00;;;4.60;;
1693;SDS011;844;47.058;15.472;2023-04-24T02:57:41;6.57;;;5.97;;
1693;SDS011;844;47.058;15.472;2023-04-24T03:00:12;6.17;;;5.67;;
1693;SDS011;844;47.058;15.472;2023-04-24T03:02:43;7.57;;;6.13;;
1693;SDS011;844;47.058;15.472;2023-04-24T03:05:15;5.53;;;5.00;;
1693;SDS011;844;47.058;15.472;2023-04-24T03:07:46;8.00;;;6.07;;
1693;SDS011;844;47.058;15.472;2023-04-24T03:10:17;6.07;;;5.47;;
1693;SDS011;844;47.058;15.472;2023-04-24T03:12:49;6.10;;;5.50;;
1693;SDS011;844;47.058;15.472;2023-04-24T03:15:19;6.67;;;6.10;;
1693;SDS011;844;47.058;15.472;2023-04-24T03:17:51;6.90;;;6.30;;
1693;SDS011;844;47.058;15.472;2023-04-24T03:20:24;5.43;;;4.93;;
1693;SDS011;844;47.058;15.472;2023-04-24T03:22:54;6.77;;;6.17;;
1693;SDS011;844;47.058;15.472;2023-04-24T03:25:26;5.30;;;4.90;;
1693;SDS011;844;47.058;15.472;2023-04-24T03:27:56;5.47;;;5.00;;
1693;SDS011;844;47.058;15.472;2023-04-24T03:30:27;5.77;;;5.23;;
1693;SDS011;844;47.058;15.472;2023-04-24T03:32:57;5.67;;;5.27;;
1693;SDS011;844;47.058;15.472;2023-04-24T03:35:28;6.40;;;4.37;;
1693;SDS011;844;47.058;15.472;2023-04-24T03:37:59;9.50;;;4.97;;
1693;SDS011;844;47.058;15.472;2023-04-24T03:40:33;5.80;;;5.37;;
1693;SDS011;844;47.058;15.472;2023-04-24T03:43:04;5.53;;;5.03;;
1693;SDS011;844;47.058;15.472;2023-04-24T03:45:36;7.17;;;5.00;;
1693;SDS011;844;47.058;15.472;2023-04-24T03:48:06;6.63;;;5.80;;
1693;SDS011;844;47.058;15.472;2023-04-24T03:50:37;5.40;;;4.90;;
1693;SDS011;844;47.058;15.472;2023-04-24T03:53:08;5.20;;;4.80;;
1693;SDS011;844;47.058;15.472;2023-04-24T03:55:39;5.87;;;5.40;;
1693;SDS011;844;47.058;15.472;2023-04-24T03:58:10;7.30;;;5.30;;
1693;SDS011;844;47.058;15.472;2023-04-24T04:00:41;5.67;;;5.17;;
1693;SDS011;844;47.058;15.472;2023-04-24T04:03:12;5.60;;;5.10;;
1693;SDS011;844;47.058;15.472;2023-04-24T04:05:43;6.67;;;6.10;;
1693;SDS011;844;47.058;15.472;2023-04-24T04:08:15;5.40;;;4.90;;
1693;SDS011;844;47.058;15.472;2023-04-24T04:10:46;5.90;;;5.30;;
1693;SDS011;844;47.058;15.472;2023-04-24T04:13:18;5.60;;;5.10;;
1693;SDS011;844;47.058;15.472;2023-04-24T04:15:48;8.00;;;5.63;;
1693;SDS011;844;47.058;15.472;2023-04-24T04:18:18;6.70;;;6.10;;
1693;SDS011;844;47.058;15.472;2023-04-24T04:20:49;6.00;;;5.27;;
1693;SDS011;844;47.058;15.472;2023-04-24T04:23:19;6.73;;;6.10;;
1693;SDS011;844;47.058;15.472;2023-04-24T04:25:51;6.57;;;5.80;;
1693;SDS011;844;47.058;15.472;2023-04-24T04:28:22;6.47;;;5.67;;
1693;SDS011;844;47.058;15.472;2023-04-24T04:30:53;6.43;;;5.77;;
1693;SDS011;844;47.058;15.472;2023-04-24T04:33:23;6.80;;;5.30;;
1693;SDS011;844;47.058;15.472;2023-04-24T04:35:53;5.80;;;5.30;;
1693;SDS011;844;47.058;15.472;2023-04-24T04:38:24;7.00;;;6.40;;
1693;SDS011;844;47.058;15.472;2023-04-24T04:40:59;6.70;;;6.20;;
1693;SDS011;844;47.058;15.472;2023-04-24T04:43:31;6.30;;;5.70;;
1693;SDS011;844;47.058;15.472;2023-04-24T04:46:02;6.20;;;5.60;;
1693;SDS011;844;47.058;15.472;2023-04-24T04:48:32;12.70;;;11.50;;
1693;SDS011;844;47.058;15.472;2023-04-24T04:51:02;11.00;;;10.07;;
1693;SDS011;844;47.058;15.472;2023-04-24T04:53:33;12.90;;;10.27;;
1693;SDS011;844;47.058;15.472;2023-04-24T04:56:06;8.67;;;7.87;;
1693;SDS011;844;47.058;15.472;2023-04-24T04:58:36;11.77;;;9.30;;
1693;SDS011;844;47.058;15.472;2023-04-24T05:01:07;9.13;;;8.43;;
1693;SDS011;844;47.058;15.472;2023-04-24T05:03:36;8.20;;;7.50;;
1693;SDS011;844;47.058;15.472;2023-04-24T05:06:07;9.37;;;8.50;;
1693;SDS011;844;47.058;15.472;2023-04-24T05:08:37;8.63;;;7.90;;
1693;SDS011;844;47.058;15.472;2023-04-24T05:11:09;9.37;;;7.40;;
1693;SDS011;844;47.058;15.472;2023-04-24T05:13:39;9.70;;;7.77;;
1693;SDS011;844;47.058;15.472;2023-04-24T05:16:09;8.90;;;8.20;;
1693;SDS011;844;47.058;15.472;2023-04-24T05:18:40;9.07;;;8.30;;
1693;SDS011;844;47.058;15.472;2023-04-24T05:21:11;9.33;;;7.50;;
1693;SDS011;844;47.058;15.472;2023-04-24T05:23:41;10.50;;;7.80;;
1693;SDS011;844;47.058;15.472;2023-04-24T05:26:15;8.97;;;8.07;;
1693;SDS011;844;47.058;15.472;2023-04-24T05:28:45;8.70;;;7.90;;
1693;SDS011;844;47.058;15.472;2023-04-24T05:31:15;9.07;;;8.27;;
1693;SDS011;844;47.058;15.472;2023-04-24T05:33:47;8.90;;;8.10;;
1693;SDS011;844;47.058;15.472;2023-04-24T05:36:17;8.33;;;7.57;;
1693;SDS011;844;47.058;15.472;2023-04-24T05:38:51;8.73;;;7.93;;
1693;SDS011;844;47.058;15.472;2023-04-24T05:41:26;10.03;;;9.13;;
1693;SDS011;844;47.058;15.472;2023-04-24T05:44:00;8.30;;;7.40;;
1693;SDS011;844;47.058;15.472;2023-04-24T05:46:30;8.30;;;7.50;;
1693;SDS011;844;47.058;15.472;2023-04-24T05:49:00;8.17;;;7.37;;
1693;SDS011;844;47.058;15.472;2023-04-24T05:51:30;8.17;;;7.53;;
1693;SDS011;844;47.058;15.472;2023-04-24T05:54:01;7.07;;;6.47;;
1693;SDS011;844;47.058;15.472;2023-04-24T05:56:32;8.60;;;7.80;;
1693;SDS011;844;47.058;15.472;2023-04-24T05:59:03;7.50;;;6.90;;
1693;SDS011;844;47.058;15.472;2023-04-24T06:01:32;6.90;;;6.40;;
1693;SDS011;844;47.058;15.472;2023-04-24T06:04:04;10.40;;;8.97;;
1693;SDS011;844;47.058;15.472;2023-04-24T06:06:34;10.20;;;7.80;;
1693;SDS011;844;47.058;15.472;2023-04-24T06:09:04;8.03;;;7.23;;
1693;SDS011;844;47.058;15.472;2023-04-24T06:11:36;8.60;;;7.83;;
1693;SDS011;844;47.058;15.472;2023-04-24T06:14:07;9.23;;;8.33;;
1693;SDS011;844;47.058;15.472;2023-04-24T06:16:36;9.10;;;8.30;;
1693;SDS011;844;47.058;15.472;2023-04-24T06:19:06;9.20;;;8.30;;
1693;SDS011;844;47.058;15.472;2023-04-24T06:21:36;10.07;;;9.00;;
1693;SDS011;844;47.058;15.472;2023-04-24T06:24:06;13.27;;;9.43;;
1693;SDS011;844;47.058;15.472;2023-04-24T06:26:39;9.97;;;9.17;;
1693;SDS011;844;47.058;15.472;2023-04-24T06:29:09;10.03;;;9.20;;
1693;SDS011;844;47.058;15.472;2023-04-24T06:31:39;10.20;;;9.30;;
1693;SDS011;844;47.058;15.472;2023-04-24T06:34:10;9.90;;;8.90;;
1693;SDS011;844;47.058;15.472;2023-04-24T06:36:41;10.20;;;9.13;;
1693;SDS011;844;47.058;15.472;2023-04-24T06:39:12;10.07;;;9.27;;
1693;SDS011;844;47.058;15.472;2023-04-24T06:41:44;11.60;;;9.80;;
1693;SDS011;844;47.058;15.472;2023-04-24T06:44:14;10.80;;;9.80;;
1693;SDS011;844;47.058;15.472;2023-04-24T06:46:45;10.97;;;10.07;;
1693;SDS011;844;47.058;15.472;2023-04-24T06:49:16;12.13;;;11.03;;
1693;SDS011;844;47.058;15.472;2023-04-24T06:51:46;9.20;;;8.40;;
1693;SDS011;844;47.058;15.472;2023-04-24T06:54:17;11.03;;;9.97;;
1693;SDS011;844;47.058;15.472;2023-04-24T06:56:49;11.77;;;10.77;;
1693;SDS011;844;47.058;15.472;2023-04-24T06:59:19;10.77;;;9.87;;
1693;SDS011;844;47.058;15.472;2023-04-24T07:01:50;11.30;;;10.23;;
1693;SDS011;844;47.058;15.472;2023-04-24T07:04:22;9.93;;;9.10;;
1693;SDS011;844;47.058;15.472;2023-04-24T07:06:53;10.10;;;9.20;;
1693;SDS011;844;47.058;15.472;2023-04-24T07:09:25;10.50;;;9.57;;
1693;SDS011;844;47.058;15.472;2023-04-24T07:11:57;9.20;;;8.40;;
1693;SDS011;844;47.058;15.472;2023-04-24T07:14:27;12.30;;;10.50;;
1693;SDS011;844;47.058;15.472;2023-04-24T07:16:58;13.30;;;9.90;;
1693;SDS011;844;47.058;15.472;2023-04-24T07:19:28;13.20;;;11.67;;
1693;SDS011;844;47.058;15.472;2023-04-24T07:21:59;12.60;;;11.37;;
1693;SDS011;844;47.058;15.472;2023-04-24T07:24:30;12.23;;;11.03;;
1693;SDS011;844;47.058;15.472;2023-04-24T07:27:04;13.80;;;12.40;;
1693;SDS011;844;47.058;15.472;2023-04-24T07:29:35;13.93;;;12.40;;
1693;SDS011;844;47.058;15.472;2023-04-24T07:32:05;13.63;;;12.43;;
1693;SDS011;844;47.058;15.472;2023-04-24T07:34:37;14.40;;;13.10;;
1693;SDS011;844;47.058;15.472;2023-04-24T07:37:08;14.27;;;12.87;;
1693;SDS011;844;47.058;15.472;2023-04-24T07:39:38;15.30;;;13.73;;
1693;SDS011;844;47.058;15.472;2023-04-24T07:42:11;13.73;;;12.30;;
1693;SDS011;844;47.058;15.472;2023-04-24T07:44:40;15.93;;;14.23;;
1693;SDS011;844;47.058;15.472;2023-04-24T07:47:10;13.20;;;12.00;;
1693;SDS011;844;47.058;15.472;2023-04-24T07:49:42;17.30;;;12.67;;
1693;SDS011;844;47.058;15.472;2023-04-24T07:52:12;13.60;;;12.20;;
1693;SDS011;844;47.058;15.472;2023-04-24T07:54:43;13.53;;;12.23;;
1693;SDS011;844;47.058;15.472;2023-04-24T07:57:15;14.63;;;13.13;;
1693;SDS011;844;47.058;15.472;2023-04-24T07:59:46;14.93;;;13.53;;
1693;SDS011;844;47.058;15.472;2023-04-24T08:02:16;18.60;;;13.97;;
1693;SDS011;844;47.058;15.472;2023-04-24T08:04:46;16.57;;;12.90;;
1693;SDS011;844;47.058;15.472;2023-04-24T08:07:16;14.07;;;12.77;;
1693;SDS011;844;47.058;15.472;2023-04-24T08:09:48;15.87;;;13.90;;
1693;SDS011;844;47.058;15.472;2023-04-24T08:12:19;14.77;;;13.27;;
1693;SDS011;844;47.058;15.472;2023-04-24T08:14:49;15.33;;;13.40;;
1693;SDS011;844;47.058;15.472;2023-04-24T08:17:19;16.30;;;14.90;;
1693;SDS011;844;47.058;15.472;2023-04-24T08:19:49;16.30;;;14.60;;
1693;SDS011;844;47.058;15.472;2023-04-24T08:22:26;16.57;;;14.67;;
1693;SDS011;844;47.058;15.472;2023-04-24T08:24:56;17.37;;;15.73;;
1693;SDS011;844;47.058;15.472;2023-04-24T08:27:30;15.50;;;14.10;;
1693;SDS011;844;47.058;15.472;2023-04-24T08:30:00;16.50;;;14.83;;
1693;SDS011;844;47.058;15.472;2023-04-24T08:32:32;18.13;;;16.63;;
1693;SDS011;844;47.058;15.472;2023-04-24T08:35:03;21.07;;;14.50;;
1693;SDS011;844;47.058;15.472;2023-04-24T08:37:37;17.70;;;16.00;;
1693;SDS011;844;47.058;15.472;2023-04-24T08:40:10;16.87;;;15.27;;
1693;SDS011;844;47.058;15.472;2023-04-24T08:42:45;17.40;;;15.70;;
1693;SDS011;844;47.058;15.472;2023-04-24T08:45:18;18.00;;;15.50;;
1693;SDS011;844;47.058;15.472;2023-04-24T08:47:49;19.90;;;15.30;;
1693;SDS011;844;47.058;15.472;2023-04-24T08:50:21;15.13;;;13.23;;
1693;SDS011;844;47.058;15.472;2023-04-24T08:52:51;14.80;;;13.50;;
1693;SDS011;844;47.058;15.472;2023-04-24T08:55:21;17.47;;;15.67;;
1693;SDS011;844;47.058;15.472;2023-04-24T08:57:56;18.30;;;16.43;;
1693;SDS011;844;47.058;15.472;2023-04-24T09:00:30;18.33;;;16.53;;
1693;SDS011;844;47.058;15.472;2023-04-24T09:03:03;20.83;;;17.40;;
1693;SDS011;844;47.058;15.472;2023-04-24T09:05:35;18.93;;;16.93;;
1693;SDS011;844;47.058;15.472;2023-04-24T09:08:07;17.43;;;15.63;;
1693;SDS011;844;47.058;15.472;2023-04-24T09:10:38;17.70;;;15.90;;
1693;SDS011;844;47.058;15.472;2023-04-24T09:13:11;17.57;;;15.87;;
1693;SDS011;844;47.058;15.472;2023-04-24T09:15:42;19.13;;;17.20;;
1693;SDS011;844;47.058;15.472;2023-04-24T09:18:12;15.27;;;13.77;;
1693;SDS011;844;47.058;15.472;2023-04-24T09:23:32;12.27;;;11.17;;
1693;SDS011;844;47.058;15.472;2023-04-24T09:26:06;11.67;;;10.57;;
1693;SDS011;844;47.058;15.472;2023-04-24T09:28:40;11.57;;;10.23;;
1693;SDS011;844;47.058;15.472;2023-04-24T09:31:13;11.47;;;10.27;;
1693;SDS011;844;47.058;15.472;2023-04-24T09:33:53;11.67;;;10.50;;
1693;SDS011;844;47.058;15.472;2023-04-24T09:36:28;11.10;;;9.03;;
1693;SDS011;844;47.058;15.472;2023-04-24T09:39:03;11.67;;;10.00;;
1693;SDS011;844;47.058;15.472;2023-04-24T09:41:43;11.93;;;7.37;;
1693;SDS011;844;47.058;15.472;2023-04-24T09:44:17;8.47;;;7.53;;
1693;SDS011;844;47.058;15.472;2023-04-24T09:46:51;7.37;;;6.77;;
1693;SDS011;844;47.058;15.472;2023-04-24T09:49:22;7.40;;;6.70;;
1693;SDS011;844;47.058;15.472;2023-04-24T09:51:56;5.70;;;5.20;;
1693;SDS011;844;47.058;15.472;2023-04-24T09:54:32;4.50;;;4.13;;
1693;SDS011;844;47.058;15.472;2023-04-24T09:57:04;8.27;;;5.50;;
1693;SDS011;844;47.058;15.472;2023-04-24T09:59:38;4.93;;;4.43;;
1693;SDS011;844;47.058;15.472;2023-04-24T10:02:18;4.67;;;4.27;;
1693;SDS011;844;47.058;15.472;2023-04-24T10:04:54;4.83;;;4.43;;
1693;SDS011;844;47.058;15.472;2023-04-24T10:07:27;4.57;;;3.33;;
1693;SDS011;844;47.058;15.472;2023-04-24T10:09:58;3.37;;;3.07;;
1693;SDS011;844;47.058;15.472;2023-04-24T10:12:28;3.17;;;2.77;;
1693;SDS011;844;47.058;15.472;2023-04-24T10:15:01;4.00;;;3.70;;
1693;SDS011;844;47.058;15.472;2023-04-24T10:17:33;2.97;;;2.67;;
1693;SDS011;844;47.058;15.472;2023-04-24T10:20:05;2.90;;;2.70;;
1693;SDS011;844;47.058;15.472;2023-04-24T10:22:36;2.93;;;2.37;;
1693;SDS011;844;47.058;15.472;2023-04-24T10:25:07;2.53;;;2.17;;
1693;SDS011;844;47.058;15.472;2023-04-24T10:27:37;2.50;;;2.30;;
1693;SDS011;844;47.058;15.472;2023-04-24T10:30:11;2.60;;;2.33;;
1693;SDS011;844;47.058;15.472;2023-04-24T10:32:42;2.83;;;2.63;;
1693;SDS011;844;47.058;15.472;2023-04-24T10:35:13;2.00;;;1.80;;
1693;SDS011;844;47.058;15.472;2023-04-24T10:37:45;2.87;;;2.60;;
1693;SDS011;844;47.058;15.472;2023-04-24T10:40:19;2.43;;;2.23;;
1693;SDS011;844;47.058;15.472;2023-04-24T10:42:55;2.03;;;1.83;;
1693;SDS011;844;47.058;15.472;2023-04-24T10:45:28;1.97;;;1.77;;
1693;SDS011;844;47.058;15.472;2023-04-24T10:47:59;3.40;;;2.80;;
1693;SDS011;844;47.058;15.472;2023-04-24T10:50:42;2.80;;;2.07;;
1693;SDS011;844;47.058;15.472;2023-04-24T10:53:15;2.50;;;2.13;;
1693;SDS011;844;47.058;15.472;2023-04-24T10:55:47;2.10;;;1.90;;
1693;SDS011;844;47.058;15.472;2023-04-24T10:58:21;2.60;;;2.07;;
1693;SDS011;844;47.058;15.472;2023-04-24T11:00:59;1.40;;;1.30;;
1693;SDS011;844;47.058;15.472;2023-04-24T11:03:30;2.47;;;2.27;;
1693;SDS011;844;47.058;15.472;2023-04-24T11:06:02;1.63;;;1.53;;
1693;SDS011;844;47.058;15.472;2023-04-24T11:08:37;1.80;;;1.50;;
1693;SDS011;844;47.058;15.472;2023-04-24T11:11:10;2.40;;;2.20;;
1693;SDS011;844;47.058;15.472;2023-04-24T11:16:42;1.87;;;1.60;;
1693;SDS011;844;47.058;15.472;2023-04-24T11:19:20;2.40;;;1.87;;
1693;SDS011;844;47.058;15.472;2023-04-24T11:21:58;1.93;;;1.73;;
1693;SDS011;844;47.058;15.472;2023-04-24T11:24:30;1.63;;;1.53;;
1693;SDS011;844;47.058;15.472;2023-04-24T11:27:06;2.37;;;1.90;;
1693;SDS011;844;47.058;15.472;2023-04-24T11:29:43;1.77;;;1.50;;
1693;SDS011;844;47.058;15.472;2023-04-24T11:32:24;1.10;;;1.00;;
1693;SDS011;844;47.058;15.472;2023-04-24T11:34:56;2.40;;;1.20;;
1693;SDS011;844;47.058;15.472;2023-04-24T11:37:32;4.03;;;2.27;;
1693;SDS011;844;47.058;15.472;2023-04-24T11:40:04;4.10;;;1.10;;
1693;SDS011;844;47.058;15.472;2023-04-24T11:42:36;4.87;;;3.40;;
1693;SDS011;844;47.058;15.472;2023-04-24T11:45:07;6.07;;;3.00;;
1693;SDS011;844;47.058;15.472;2023-04-24T11:47:41;2.90;;;2.03;;
1693;SDS011;844;47.058;15.472;2023-04-24T11:50:13;3.67;;;2.30;;
1693;SDS011;844;47.058;15.472;2023-04-24T11:52:45;2.27;;;1.70;;
1693;SDS011;844;47.058;15.472;2023-04-24T11:55:23;1.60;;;1.43;;
1693;SDS011;844;47.058;15.472;2023-04-24T11:57:55;1.57;;;1.17;;
1693;SDS011;844;47.058;15.472;2023-04-24T12:00:27;3.67;;;1.97;;
1693;SDS011;844;47.058;15.472;2023-04-24T12:03:07;3.10;;;1.90;;
1693;SDS011;844;47.058;15.472;2023-04-24T12:05:39;10.03;;;3.30;;
1693;SDS011;844;47.058;15.472;2023-04-24T12:08:11;4.13;;;3.53;;
1693;SDS011;844;47.058;15.472;2023-04-24T12:10:41;5.57;;;2.47;;
1693;SDS011;844;47.058;15.472;2023-04-24T12:13:11;5.70;;;2.90;;
1693;SDS011;844;47.058;15.472;2023-04-24T12:15:42;3.57;;;1.57;;
1693;SDS011;844;47.058;15.472;2023-04-24T12:18:14;2.07;;;1.67;;
1693;SDS011;844;47.058;15.472;2023-04-24T12:20:45;4.30;;;3.33;;
1693;SDS011;844;47.058;15.472;2023-04-24T12:23:16;5.60;;;3.77;;
1693;SDS011;844;47.058;15.472;2023-04-24T12:26:03;2.40;;;1.63;;
1693;SDS011;844;47.058;15.472;2023-04-24T12:28:34;2.90;;;2.33;;
1693;SDS011;844;47.058;15.472;2023-04-24T12:31:06;1.50;;;1.40;;
1693;SDS011;844;47.058;15.472;2023-04-24T12:33:38;1.73;;;1.30;;
1693;SDS011;844;47.058;15.472;2023-04-24T12:36:09;4.10;;;2.40;;
1693;SDS011;844;47.058;15.472;2023-04-24T12:38:43;2.80;;;2.07;;
1693;SDS011;844;47.058;15.472;2023-04-24T12:41:14;1.40;;;1.27;;
1693;SDS011;844;47.058;15.472;2023-04-24T12:43:51;1.10;;;0.90;;
1693;SDS011;844;47.058;15.472;2023-04-24T12:46:22;1.27;;;1.00;;
1693;SDS011;844;47.058;15.472;2023-04-24T12:48:54;1.17;;;0.90;;
1693;SDS011;844;47.058;15.472;2023-04-24T12:51:26;1.47;;;0.80;;
1693;SDS011;844;47.058;15.472;2023-04-24T12:53:56;1.43;;;1.20;;
1693;SDS011;844;47.058;15.472;2023-04-24T12:56:27;0.87;;;0.80;;
1693;SDS011;844;47.058;15.472;2023-04-24T12:58:59;2.57;;;1.43;;
1693;SDS011;844;47.058;15.472;2023-04-24T13:01:30;1.40;;;1.20;;
1693;SDS011;844;47.058;15.472;2023-04-24T13:04:02;1.63;;;0.93;;
1693;SDS011;844;47.058;15.472;2023-04-24T13:06:34;1.97;;;1.33;;
1693;SDS011;844;47.058;15.472;2023-04-24T13:09:04;5.23;;;1.10;;
1693;SDS011;844;47.058;15.472;2023-04-24T13:11:36;0.90;;;0.60;;
1693;SDS011;844;47.058;15.472;2023-04-24T13:14:06;0.70;;;0.63;;
1693;SDS011;844;47.058;15.472;2023-04-24T13:16:36;1.50;;;0.70;;
1693;SDS011;844;47.058;15.472;2023-04-24T13:19:09;1.00;;;0.53;;
1693;SDS011;844;47.058;15.472;2023-04-24T13:21:39;1.70;;;0.70;;
1693;SDS011;844;47.058;15.472;2023-04-24T13:24:09;1.10;;;1.00;;
1693;SDS011;844;47.058;15.472;2023-04-24T13:26:41;2.20;;;1.27;;
1693;SDS011;844;47.058;15.472;2023-04-24T13:29:11;1.33;;;0.77;;
1693;SDS011;844;47.058;15.472;2023-04-24T13:31:42;1.00;;;0.80;;
1693;SDS011;844;47.058;15.472;2023-04-24T13:34:14;1.77;;;1.00;;
1693;SDS011;844;47.058;15.472;2023-04-24T13:36:44;2.67;;;0.90;;
1693;SDS011;844;47.058;15.472;2023-04-24T13:39:15;1.27;;;1.00;;
1693;SDS011;844;47.058;15.472;2023-04-24T13:41:46;1.63;;;1.50;;
1693;SDS011;844;47.058;15.472;2023-04-24T13:44:17;1.00;;;0.83;;
1693;SDS011;844;47.058;15.472;2023-04-24T13:46:49;1.97;;;0.87;;
1693;SDS011;844;47.058;15.472;2023-04-24T13:49:23;1.00;;;0.70;;
1693;SDS011;844;47.058;15.472;2023-04-24T13:51:53;1.33;;;0.87;;
1693;SDS011;844;47.058;15.472;2023-04-24T13:54:25;1.67;;;0.90;;
1693;SDS011;844;47.058;15.472;2023-04-24T13:56:55;1.43;;;0.80;;
1693;SDS011;844;47.058;15.472;2023-04-24T13:59:27;0.90;;;0.80;;
1693;SDS011;844;47.058;15.472;2023-04-24T14:01:57;1.70;;;1.40;;
1693;SDS011;844;47.058;15.472;2023-04-24T14:04:30;2.10;;;1.50;;
1693;SDS011;844;47.058;15.472;2023-04-24T14:07:01;1.20;;;1.10;;
1693;SDS011;844;47.058;15.472;2023-04-24T14:09:31;1.00;;;0.70;;
1693;SDS011;844;47.058;15.472;2023-04-24T14:12:02;3.63;;;1.20;;
1693;SDS011;844;47.058;15.472;2023-04-24T14:14:34;1.13;;;1.00;;
1693;SDS011;844;47.058;15.472;2023-04-24T14:17:05;1.60;;;0.77;;
1693;SDS011;844;47.058;15.472;2023-04-24T14:19:37;1.13;;;1.03;;
1693;SDS011;844;47.058;15.472;2023-04-24T14:22:08;1.83;;;0.77;;
1693;SDS011;844;47.058;15.472;2023-04-24T14:24:38;1.50;;;1.37;;
1693;SDS011;844;47.058;15.472;2023-04-24T14:27:09;1.20;;;0.90;;
1693;SDS011;844;47.058;15.472;2023-04-24T14:29:39;1.43;;;1.33;;
1693;SDS011;844;47.058;15.472;2023-04-24T14:32:09;2.20;;;1.13;;
1693;SDS011;844;47.058;15.472;2023-04-24T14:34:43;1.17;;;0.97;;
1693;SDS011;844;47.058;15.472;2023-04-24T14:37:14;2.73;;;1.60;;
1693;SDS011;844;47.058;15.472;2023-04-24T14:39:45;2.80;;;2.50;;
1693;SDS011;844;47.058;15.472;2023-04-24T14:42:27;1.70;;;1.50;;
1693;SDS011;844;47.058;15.472;2023-04-24T14:44:57;3.03;;;1.60;;
1693;SDS011;844;47.058;15.472;2023-04-24T14:47:28;2.93;;;1.97;;
1693;SDS011;844;47.058;15.472;2023-04-24T14:50:00;5.83;;;2.50;;
1693;SDS011;844;47.058;15.472;2023-04-24T14:52:31;4.00;;;2.57;;
1693;SDS011;844;47.058;15.472;2023-04-24T14:55:01;1.43;;;1.33;;
1693;SDS011;844;47.058;15.472;2023-04-24T14:57:37;1.70;;;1.43;;
1693;SDS011;844;47.058;15.472;2023-04-24T15:00:12;1.67;;;1.53;;
1693;SDS011;844;47.058;15.472;2023-04-24T15:02:44;1.63;;;1.20;;
1693;SDS011;844;47.058;15.472;2023-04-24T15:05:17;1.97;;;1.77;;
1693;SDS011;844;47.058;15.472;2023-04-24T15:07:50;1.30;;;0.90;;
1693;SDS011;844;47.058;15.472;2023-04-24T15:10:20;1.03;;;0.90;;
1693;SDS011;844;47.058;15.472;2023-04-24T15:12:52;2.20;;;0.80;;
1693;SDS011;844;47.058;15.472;2023-04-24T15:15:22;1.20;;;0.97;;
1693;SDS011;844;47.058;15.472;2023-04-24T15:17:53;1.97;;;1.33;;
1693;SDS011;844;47.058;15.472;2023-04-24T15:20:25;2.00;;;1.17;;
1693;SDS011;844;47.058;15.472;2023-04-24T15:22:56;1.50;;;1.40;;
1693;SDS011;844;47.058;15.472;2023-04-24T15:25:29;1.73;;;1.63;;
1693;SDS011;844;47.058;15.472;2023-04-24T15:28:00;2.23;;;1.60;;
1693;SDS011;844;47.058;15.472;2023-04-24T15:30:32;2.37;;;1.43;;
1693;SDS011;844;47.058;15.472;2023-04-24T15:33:03;1.27;;;1.17;;
1693;SDS011;844;47.058;15.472;2023-04-24T15:35:35;1.70;;;1.00;;
1693;SDS011;844;47.058;15.472;2023-04-24T15:38:08;1.33;;;1.23;;
1693;SDS011;844;47.058;15.472;2023-04-24T15:40:43;1.40;;;1.00;;
1693;SDS011;844;47.058;15.472;2023-04-24T15:43:14;1.70;;;1.20;;